createdAt,value
2023-01-27T00:00:28.420Z,-1.64
2023-01-27T00:02:55.084Z,-1.46
2023-01-27T00:05:22.174Z,-1.67
2023-01-27T00:07:49.802Z,-1.72
2023-01-27T00:10:20.416Z,-1.64
2023-01-27T00:13:06.895Z,-1.77
2023-01-27T00:15:34.914Z,-1.58
2023-01-27T00:18:01.681Z,-1.45
2023-01-27T00:20:46.824Z,-1.53
2023-01-27T00:23:39.906Z,-1.60
2023-01-27T00:26:08.675Z,-1.56
2023-01-27T00:28:36.614Z,-1.43
2023-01-27T00:31:04.262Z,-1.58
2023-01-27T00:33:30.766Z,-1.37
2023-01-27T00:36:08.078Z,-1.55
2023-01-27T00:38:41.008Z,-1.40
2023-01-27T00:41:21.244Z,-1.78
2023-01-27T00:43:49.366Z,-1.45
2023-01-27T00:46:17.240Z,-1.42
2023-01-27T00:48:44.075Z,-1.52
2023-01-27T00:51:11.782Z,-1.45
2023-01-27T00:53:38.260Z,-1.62
2023-01-27T00:56:05.796Z,-1.81
2023-01-27T00:58:32.440Z,-1.73
2023-01-27T01:01:01.841Z,-1.70
2023-01-27T01:03:31.481Z,-1.46
2023-01-27T01:06:03.855Z,-1.49
2023-01-27T01:08:32.124Z,-1.58
2023-01-27T01:10:59.135Z,-1.50
2023-01-27T01:13:28.258Z,-1.39
2023-01-27T01:15:55.896Z,-1.31
2023-01-27T01:18:22.907Z,-1.16
2023-01-27T01:20:49.651Z,-1.22
2023-01-27T01:23:16.595Z,-1.04
2023-01-27T01:25:43.278Z,-1.53
2023-01-27T01:28:10.179Z,-1.51
2023-01-27T01:30:37.816Z,-1.60
2023-01-27T01:33:05.743Z,-1.35
2023-01-27T01:35:37.591Z,-1.43
2023-01-27T01:38:04.050Z,-1.60
2023-01-27T01:40:30.604Z,-1.37
2023-01-27T01:43:02.948Z,-1.55
2023-01-27T01:45:32.634Z,-1.39
2023-01-27T01:48:31.798Z,-1.39
2023-01-27T01:51:20.248Z,-1.51
2023-01-27T01:53:55.915Z,-1.33
2023-01-27T01:56:31.695Z,-1.35
2023-01-27T01:59:04.455Z,-1.25
2023-01-27T02:01:30.988Z,-1.16
2023-01-27T02:04:02.738Z,-1.32
2023-01-27T02:06:37.837Z,-1.10
2023-01-27T02:09:04.440Z,-1.13
2023-01-27T02:11:31.021Z,-0.93
2023-01-27T02:14:01.744Z,-1.30
2023-01-27T02:16:28.896Z,-1.12
2023-01-27T02:18:57.183Z,-1.18
2023-01-27T02:21:23.994Z,-1.28
2023-01-27T02:23:59.798Z,-1.16
2023-01-27T02:26:30.207Z,-1.31
2023-01-27T02:29:04.583Z,-1.27
2023-01-27T02:31:31.527Z,-1.16
2023-01-27T02:34:03.914Z,-0.86
2023-01-27T02:36:34.291Z,-0.92
2023-01-27T02:39:02.730Z,-1.00
2023-01-27T02:41:41.422Z,-1.01
2023-01-27T02:44:09.885Z,-0.94
2023-01-27T02:46:37.148Z,-0.98
2023-01-27T02:49:03.828Z,-0.81
2023-01-27T02:51:30.855Z,-0.98
2023-01-27T02:53:58.826Z,-0.88
2023-01-27T02:56:26.083Z,-0.95
2023-01-27T02:58:56.241Z,-0.89
2023-01-27T03:01:32.720Z,-0.80
2023-01-27T03:04:00.262Z,-0.78
2023-01-27T03:06:26.873Z,-0.84
2023-01-27T03:08:53.511Z,-0.84
2023-01-27T03:11:39.966Z,-0.87
2023-01-27T03:14:08.320Z,-0.72
2023-01-27T03:16:54.091Z,-0.67
2023-01-27T03:19:20.560Z,-0.67
2023-01-27T03:21:51.014Z,-0.65
2023-01-27T03:24:18.102Z,-0.76
2023-01-27T03:26:44.890Z,-0.67
2023-01-27T03:29:39.908Z,-0.90
2023-01-27T03:32:06.565Z,-0.97
2023-01-27T03:34:33.568Z,-1.00
2023-01-27T03:37:24.011Z,-0.95
2023-01-27T03:40:09.769Z,-0.94
2023-01-27T03:42:54.856Z,-0.84
2023-01-27T03:45:40.788Z,-0.84
2023-01-27T03:48:07.264Z,-0.92
2023-01-27T03:50:43.814Z,-0.93
2023-01-27T03:53:11.013Z,-0.89
2023-01-27T03:55:38.732Z,-0.90
2023-01-27T03:58:19.676Z,-0.92
2023-01-27T04:00:49.800Z,-0.93
2023-01-27T04:03:34.702Z,-0.93
2023-01-27T04:06:24.675Z,-0.96
2023-01-27T04:08:51.211Z,-1.03
2023-01-27T04:11:36.407Z,-0.99
2023-01-27T04:14:05.285Z,-0.92
2023-01-27T04:16:32.306Z,-0.99
2023-01-27T04:18:58.946Z,-0.96
2023-01-27T04:21:25.816Z,-1.00
2023-01-27T04:23:53.057Z,-1.08
2023-01-27T04:26:20.292Z,-1.02
2023-01-27T04:28:47.100Z,-0.89
2023-01-27T04:31:15.411Z,-1.06
2023-01-27T04:33:42.800Z,-1.13
2023-01-27T04:36:09.365Z,-1.03
2023-01-27T04:38:36.189Z,-0.96
2023-01-27T04:41:02.654Z,-1.05
2023-01-27T04:43:29.111Z,-1.06
2023-01-27T04:45:55.716Z,-1.04
2023-01-27T04:48:22.240Z,-1.03
2023-01-27T04:50:48.667Z,-1.08
2023-01-27T04:53:15.262Z,-0.93
2023-01-27T04:55:45.860Z,-1.02
2023-01-27T04:58:14.003Z,-1.05
2023-01-27T05:00:40.605Z,-0.95
2023-01-27T05:03:09.542Z,-0.86
2023-01-27T05:05:36.738Z,-0.99
2023-01-27T05:08:04.842Z,-1.09
2023-01-27T05:10:31.794Z,-1.11
2023-01-27T05:12:58.927Z,-1.08
2023-01-27T05:15:25.759Z,-1.05
2023-01-27T05:17:52.389Z,-1.06
2023-01-27T05:20:18.874Z,-1.00
2023-01-27T05:22:45.479Z,-0.95
2023-01-27T05:25:12.530Z,-0.96
2023-01-27T05:27:39.308Z,-0.88
2023-01-27T05:30:06.566Z,-1.04
2023-01-27T05:32:33.054Z,-0.91
2023-01-27T05:34:59.490Z,-1.11
2023-01-27T05:37:26.614Z,-1.10
2023-01-27T05:39:53.098Z,-1.09
2023-01-27T05:42:19.553Z,-1.07
2023-01-27T05:44:46.102Z,-1.11
2023-01-27T05:47:12.539Z,-1.20
2023-01-27T05:49:38.998Z,-1.18
2023-01-27T05:52:05.464Z,-1.02
2023-01-27T05:54:31.998Z,-1.12
2023-01-27T05:56:58.444Z,-1.27
2023-01-27T05:59:24.886Z,-1.08
2023-01-27T06:01:51.364Z,-1.18
2023-01-27T06:04:18.010Z,-1.26
2023-01-27T06:06:44.448Z,-1.26
2023-01-27T06:09:11.331Z,-1.32
2023-01-27T06:11:37.775Z,-1.28
2023-01-27T06:14:04.268Z,-1.22
2023-01-27T06:16:30.765Z,-1.32
2023-01-27T06:18:58.553Z,-1.25
2023-01-27T06:21:25.159Z,-1.32
2023-01-27T06:23:53.405Z,-1.16
2023-01-27T06:26:20.380Z,-1.15
2023-01-27T06:28:47.428Z,-1.09
2023-01-27T06:31:19.706Z,-1.24
2023-01-27T06:33:46.294Z,-1.27
2023-01-27T06:36:15.929Z,-1.08
2023-01-27T06:38:43.020Z,-1.02
2023-01-27T06:41:09.825Z,-1.01
2023-01-27T06:43:36.475Z,-1.01
2023-01-27T06:46:05.483Z,-1.12
2023-01-27T06:48:32.809Z,-1.13
2023-01-27T06:50:59.590Z,-1.10
2023-01-27T06:53:26.203Z,-0.96
2023-01-27T06:56:00.584Z,-1.05
2023-01-27T06:58:28.024Z,-0.87
2023-01-27T07:00:55.663Z,-0.86
2023-01-27T07:03:22.954Z,-1.06
2023-01-27T07:05:49.959Z,-0.98
2023-01-27T07:08:16.523Z,-1.08
2023-01-27T07:10:43.097Z,-1.03
2023-01-27T07:13:12.691Z,-1.07
2023-01-27T07:15:39.652Z,-1.10
2023-01-27T07:18:06.366Z,-1.06
2023-01-27T07:20:33.050Z,-1.11
2023-01-27T07:23:00.752Z,-0.97
2023-01-27T07:25:28.231Z,-1.04
2023-01-27T07:27:57.689Z,-0.94
2023-01-27T07:30:24.887Z,-0.94
2023-01-27T07:32:51.419Z,-0.78
2023-01-27T07:35:18.596Z,-0.79
2023-01-27T07:37:45.045Z,-0.81
2023-01-27T07:40:13.664Z,-0.70
2023-01-27T07:42:41.511Z,-0.75
2023-01-27T07:45:09.475Z,-0.77
2023-01-27T07:47:36.035Z,-0.76
2023-01-27T07:50:02.648Z,-0.85
2023-01-27T07:52:29.086Z,-0.81
2023-01-27T07:54:55.575Z,-0.90
2023-01-27T07:57:22.046Z,-0.89
2023-01-27T07:59:48.545Z,-0.76
2023-01-27T08:02:14.993Z,-0.82
2023-01-27T08:04:52.538Z,-0.84
2023-01-27T08:07:20.266Z,-0.71
2023-01-27T08:09:46.747Z,-0.77
2023-01-27T08:12:13.203Z,-0.69
2023-01-27T08:14:39.647Z,-0.69
2023-01-27T08:17:06.250Z,-0.97
2023-01-27T08:19:32.713Z,-0.95
2023-01-27T08:21:59.152Z,-0.95
2023-01-27T08:24:25.714Z,-0.91
2023-01-27T08:26:52.187Z,-0.69
2023-01-27T08:29:18.634Z,-0.63
2023-01-27T08:31:45.097Z,-0.81
2023-01-27T08:34:11.960Z,-0.66
2023-01-27T08:36:41.763Z,-0.71
2023-01-27T08:39:09.474Z,-0.66
2023-01-27T08:41:36.301Z,-0.69
2023-01-27T08:44:02.942Z,-0.77
2023-01-27T08:46:29.406Z,-0.75
2023-01-27T08:48:55.867Z,-0.84
2023-01-27T08:51:22.368Z,-0.87
2023-01-27T08:53:48.866Z,-0.70
2023-01-27T08:56:15.954Z,-0.78
2023-01-27T08:58:43.022Z,-0.62
2023-01-27T09:01:09.842Z,-0.58
2023-01-27T09:03:37.292Z,-0.57
2023-01-27T09:06:08.433Z,-0.63
2023-01-27T09:08:35.252Z,-0.54
2023-01-27T09:11:11.956Z,-0.52
2023-01-27T09:13:38.520Z,-0.40
2023-01-27T09:16:05.295Z,-0.14
2023-01-27T09:18:31.755Z,0.09
2023-01-27T09:20:58.295Z,-0.01
2023-01-27T09:23:24.782Z,0.33
2023-01-27T09:25:51.217Z,0.34
2023-01-27T09:28:17.686Z,0.00
2023-01-27T09:30:46.369Z,-0.17
2023-01-27T09:33:17.480Z,-0.12
2023-01-27T09:35:49.285Z,-0.10
2023-01-27T09:38:20.215Z,0.11
2023-01-27T09:41:04.938Z,-0.04
2023-01-27T09:43:43.961Z,-0.29
2023-01-27T09:46:22.747Z,-0.27
2023-01-27T09:49:09.434Z,-0.14
2023-01-27T09:51:49.608Z,-0.24
2023-01-27T09:54:43.638Z,-0.07
2023-01-27T09:57:39.272Z,-0.11
2023-01-27T10:00:32.637Z,-0.05
2023-01-27T10:03:26.412Z,0.21
2023-01-27T10:06:05.869Z,0.28
2023-01-27T10:08:35.397Z,0.15
2023-01-27T10:11:17.645Z,0.11
2023-01-27T10:14:02.384Z,-0.06
2023-01-27T10:16:41.819Z,0.06
2023-01-27T10:19:50.231Z,0.20
2023-01-27T10:22:41.762Z,-0.11
2023-01-27T10:25:29.109Z,0.07
2023-01-27T10:28:07.287Z,-0.02
2023-01-27T10:30:36.224Z,0.20
2023-01-27T10:33:14.613Z,0.09
2023-01-27T10:36:02.824Z,0.32
2023-01-27T10:38:40.453Z,0.29
2023-01-27T10:41:24.297Z,0.55
2023-01-27T10:43:56.871Z,0.51
2023-01-27T10:47:01.521Z,0.49
2023-01-27T10:49:34.746Z,0.28
2023-01-27T10:52:12.564Z,0.07
2023-01-27T10:54:46.761Z,0.44
2023-01-27T10:57:36.579Z,0.20
2023-01-27T11:00:37.907Z,0.04
2023-01-27T11:03:14.880Z,-0.01
2023-01-27T11:05:50.934Z,0.07
2023-01-27T11:08:22.464Z,0.02
2023-01-27T11:11:12.410Z,0.26
2023-01-27T11:13:39.093Z,0.23
2023-01-27T11:16:14.414Z,0.14
2023-01-27T11:18:43.144Z,0.31
2023-01-27T11:21:15.677Z,0.33
2023-01-27T11:23:48.863Z,0.44
2023-01-27T11:26:30.188Z,0.42
2023-01-27T11:29:33.516Z,0.38
2023-01-27T11:32:53.870Z,0.91
2023-01-27T11:35:21.493Z,0.87
2023-01-27T11:37:50.415Z,0.71
2023-01-27T11:40:28.728Z,0.42
2023-01-27T11:42:58.091Z,0.43
2023-01-27T11:45:25.050Z,0.43
2023-01-27T11:47:58.607Z,0.19
2023-01-27T11:50:30.684Z,0.21
2023-01-27T11:53:09.375Z,0.12
2023-01-27T11:55:43.471Z,0.33
2023-01-27T11:58:38.735Z,0.18
2023-01-27T12:01:25.264Z,0.15
2023-01-27T12:04:06.781Z,0.03
2023-01-27T12:06:51.759Z,0.17
2023-01-27T12:09:37.843Z,-0.01
2023-01-27T12:12:20.642Z,0.18
2023-01-27T12:14:57.693Z,0.39
2023-01-27T12:17:24.124Z,0.44
2023-01-27T12:19:53.973Z,0.53
2023-01-27T12:22:28.857Z,0.62
2023-01-27T12:25:02.278Z,0.28
2023-01-27T12:27:46.661Z,0.57
2023-01-27T12:30:36.409Z,0.59
2023-01-27T12:33:13.380Z,0.64
2023-01-27T12:35:40.189Z,0.31
2023-01-27T12:38:15.884Z,0.45
2023-01-27T12:40:45.903Z,0.38
2023-01-27T12:43:15.508Z,0.51
2023-01-27T12:45:43.510Z,0.18
2023-01-27T12:48:10.096Z,0.47
2023-01-27T12:50:40.180Z,0.43
2023-01-27T12:53:17.817Z,0.28
2023-01-27T12:55:50.941Z,0.32
2023-01-27T12:58:39.716Z,0.39
2023-01-27T13:01:25.481Z,0.42
2023-01-27T13:04:01.081Z,0.44
2023-01-27T13:06:34.222Z,0.18
2023-01-27T13:09:02.553Z,0.50
2023-01-27T13:11:37.212Z,0.42
2023-01-27T13:14:07.593Z,0.71
2023-01-27T13:16:34.252Z,0.53
2023-01-27T13:19:01.404Z,0.80
2023-01-27T13:21:34.894Z,0.90
2023-01-27T13:24:10.354Z,0.69
2023-01-27T13:26:38.377Z,0.38
2023-01-27T13:29:16.593Z,0.31
2023-01-27T13:31:56.798Z,0.29
2023-01-27T13:34:26.005Z,0.38
2023-01-27T13:37:00.973Z,0.30
2023-01-27T13:40:05.994Z,0.44
2023-01-27T13:42:56.141Z,0.56
2023-01-27T13:45:28.164Z,0.39
2023-01-27T13:48:15.946Z,0.54
2023-01-27T13:50:56.084Z,0.58
2023-01-27T13:53:22.554Z,0.52
2023-01-27T13:55:57.886Z,0.58
2023-01-27T13:58:42.888Z,0.55
2023-01-27T14:01:21.305Z,0.41
2023-01-27T14:04:24.969Z,0.79
2023-01-27T14:07:25.650Z,0.85
2023-01-27T14:10:22.186Z,0.82
2023-01-27T14:13:13.383Z,0.61
2023-01-27T14:15:52.076Z,0.78
2023-01-27T14:18:26.437Z,0.79
2023-01-27T14:21:02.707Z,0.64
2023-01-27T14:23:40.611Z,0.53
2023-01-27T14:26:42.854Z,0.63
2023-01-27T14:29:26.416Z,1.06
2023-01-27T14:32:08.260Z,1.07
2023-01-27T14:34:37.627Z,0.94
2023-01-27T14:37:30.434Z,1.21
2023-01-27T14:40:12.596Z,1.02
2023-01-27T14:42:54.074Z,1.07
2023-01-27T14:45:26.274Z,0.96
2023-01-27T14:48:10.199Z,0.70
2023-01-27T14:51:00.974Z,0.74
2023-01-27T14:53:45.894Z,0.99
2023-01-27T14:56:30.873Z,0.96
2023-01-27T14:59:09.516Z,0.92
2023-01-27T15:01:56.239Z,1.03
2023-01-27T15:04:58.816Z,1.02
2023-01-27T15:07:40.399Z,0.94
2023-01-27T15:10:28.497Z,0.98
2023-01-27T15:13:31.717Z,1.06
2023-01-27T15:16:19.622Z,0.70
2023-01-27T15:18:55.666Z,0.76
2023-01-27T15:21:40.964Z,0.62
2023-01-27T15:24:28.090Z,0.64
2023-01-27T15:26:55.546Z,0.76
2023-01-27T15:29:27.211Z,0.68
2023-01-27T15:32:12.339Z,0.65
2023-01-27T15:34:39.142Z,0.68
2023-01-27T15:37:28.120Z,0.63
2023-01-27T15:40:06.532Z,0.56
2023-01-27T15:42:55.108Z,0.94
2023-01-27T15:45:33.463Z,0.76
2023-01-27T15:48:12.296Z,0.71
2023-01-27T15:50:46.645Z,0.64
2023-01-27T15:53:35.143Z,0.70
2023-01-27T15:56:03.122Z,0.58
2023-01-27T15:59:03.273Z,0.72
2023-01-27T16:01:33.250Z,0.80
2023-01-27T16:04:25.231Z,0.64
2023-01-27T16:07:01.846Z,0.74
2023-01-27T16:09:35.870Z,0.71
2023-01-27T16:12:28.219Z,0.53
2023-01-27T16:15:00.809Z,0.54
2023-01-27T16:17:32.891Z,0.73
2023-01-27T16:20:19.575Z,0.65
2023-01-27T16:22:51.355Z,0.79
2023-01-27T16:25:46.163Z,0.68
2023-01-27T16:28:19.978Z,0.67
2023-01-27T16:31:01.583Z,0.63
2023-01-27T16:33:33.213Z,0.77
2023-01-27T16:36:16.992Z,0.77
2023-01-27T16:38:45.527Z,0.69
2023-01-27T16:41:36.158Z,0.63
2023-01-27T16:44:04.487Z,0.71
2023-01-27T16:46:45.954Z,0.92
2023-01-27T16:49:21.063Z,0.71
2023-01-27T16:51:58.430Z,0.91
2023-01-27T16:54:31.740Z,0.89
2023-01-27T16:56:58.669Z,0.91
2023-01-27T16:59:28.050Z,0.77
2023-01-27T17:01:59.811Z,0.86
2023-01-27T17:04:28.860Z,0.84
2023-01-27T17:07:07.654Z,0.73
2023-01-27T17:09:41.318Z,0.64
2023-01-27T17:12:29.193Z,0.86
2023-01-27T17:14:56.293Z,0.62
2023-01-27T17:17:24.827Z,0.74
2023-01-27T17:19:55.081Z,0.71
2023-01-27T17:22:27.041Z,0.69
2023-01-27T17:24:56.322Z,0.57
2023-01-27T17:27:41.538Z,0.50
2023-01-27T17:30:18.171Z,0.61
2023-01-27T17:32:50.916Z,0.74
2023-01-27T17:35:32.891Z,0.59
2023-01-27T17:38:22.020Z,0.45
2023-01-27T17:40:50.586Z,0.71
2023-01-27T17:43:34.795Z,0.71
2023-01-27T17:46:23.988Z,0.45
2023-01-27T17:49:00.694Z,0.53
2023-01-27T17:51:34.387Z,0.60
2023-01-27T17:54:01.777Z,0.65
2023-01-27T17:56:32.335Z,0.84
2023-01-27T17:59:11.106Z,0.89
2023-01-27T18:01:38.213Z,0.63
2023-01-27T18:04:06.101Z,0.69
2023-01-27T18:06:33.074Z,0.67
2023-01-27T18:09:14.676Z,0.77
2023-01-27T18:11:58.305Z,0.70
2023-01-27T18:14:25.650Z,0.90
2023-01-27T18:17:05.201Z,0.82
2023-01-27T18:19:33.198Z,0.79
2023-01-27T18:22:16.382Z,0.72
2023-01-27T18:24:54.867Z,0.85
2023-01-27T18:27:23.219Z,0.71
2023-01-27T18:30:00.015Z,0.77
2023-01-27T18:32:35.485Z,0.74
2023-01-27T18:35:01.984Z,0.80
2023-01-27T18:37:34.362Z,0.71
2023-01-27T18:40:02.935Z,0.78
2023-01-27T18:42:30.965Z,0.84
2023-01-27T18:44:57.598Z,0.72
2023-01-27T18:47:32.306Z,0.95
2023-01-27T18:50:04.918Z,1.01
2023-01-27T18:52:31.460Z,0.93
2023-01-27T18:55:06.234Z,1.00
2023-01-27T18:57:32.697Z,1.01
2023-01-27T18:59:59.131Z,0.88
2023-01-27T19:02:25.785Z,0.87
2023-01-27T19:04:52.297Z,0.88
2023-01-27T19:07:19.491Z,0.86
2023-01-27T19:09:48.905Z,0.96
2023-01-27T19:12:15.527Z,0.81
2023-01-27T19:14:42.272Z,0.84
2023-01-27T19:17:23.028Z,0.87
2023-01-27T19:19:49.917Z,0.78
2023-01-27T19:22:18.220Z,0.82
2023-01-27T19:24:48.443Z,0.90
2023-01-27T19:27:17.366Z,0.90
2023-01-27T19:29:43.973Z,0.86
2023-01-27T19:32:14.570Z,0.87
2023-01-27T19:34:41.353Z,0.92
2023-01-27T19:37:17.536Z,0.80
2023-01-27T19:39:45.355Z,0.90
2023-01-27T19:42:14.628Z,0.83
2023-01-27T19:44:41.061Z,0.80
2023-01-27T19:47:12.558Z,0.86
2023-01-27T19:49:39.550Z,0.81
2023-01-27T19:52:06.321Z,0.87
2023-01-27T19:54:32.867Z,0.91
2023-01-27T19:56:59.309Z,0.92
2023-01-27T19:59:25.782Z,0.95
2023-01-27T20:01:52.371Z,0.77
2023-01-27T20:04:18.861Z,0.89
2023-01-27T20:06:45.410Z,0.95
2023-01-27T20:09:12.089Z,0.82
2023-01-27T20:11:41.298Z,0.83
2023-01-27T20:14:19.205Z,1.10
2023-01-27T20:16:46.972Z,1.16
2023-01-27T20:19:17.371Z,1.23
2023-01-27T20:21:45.474Z,1.19
2023-01-27T20:24:16.936Z,1.11
2023-01-27T20:26:43.416Z,1.12
2023-01-27T20:29:09.906Z,1.20
2023-01-27T20:31:38.517Z,1.00
2023-01-27T20:34:04.995Z,0.99
2023-01-27T20:36:31.596Z,1.10
2023-01-27T20:38:58.097Z,1.01
2023-01-27T20:41:24.853Z,1.08
2023-01-27T20:43:56.441Z,1.04
2023-01-27T20:46:23.063Z,0.97
2023-01-27T20:48:49.651Z,0.83
2023-01-27T20:51:16.630Z,1.08
2023-01-27T20:53:46.955Z,0.93
2023-01-27T20:56:18.813Z,1.09
2023-01-27T20:58:45.804Z,0.94
2023-01-27T21:01:15.374Z,1.01
2023-01-27T21:03:42.452Z,1.11
2023-01-27T21:06:10.744Z,0.81
2023-01-27T21:08:37.970Z,1.05
2023-01-27T21:11:07.041Z,0.85
2023-01-27T21:13:33.715Z,0.95
2023-01-27T21:16:01.892Z,0.89
2023-01-27T21:18:28.845Z,0.78
2023-01-27T21:20:56.584Z,0.80
2023-01-27T21:23:24.730Z,0.74
2023-01-27T21:25:51.325Z,0.60
2023-01-27T21:28:18.283Z,0.59
2023-01-27T21:30:45.521Z,0.55
2023-01-27T21:33:12.153Z,0.57
2023-01-27T21:35:38.702Z,0.74
2023-01-27T21:38:05.621Z,0.69
2023-01-27T21:40:33.238Z,0.64
2023-01-27T21:43:18.399Z,0.62
2023-01-27T21:45:44.839Z,0.71
2023-01-27T21:48:11.297Z,0.89
2023-01-27T21:50:38.523Z,0.67
2023-01-27T21:53:09.557Z,0.76
2023-01-27T21:55:35.983Z,0.71
2023-01-27T21:58:02.469Z,0.78
2023-01-27T22:00:29.685Z,0.74
2023-01-27T22:02:58.205Z,0.64
2023-01-27T22:05:25.807Z,0.91
2023-01-27T22:07:52.844Z,0.78
2023-01-27T22:10:21.778Z,0.89
2023-01-27T22:12:49.765Z,1.02
2023-01-27T22:15:19.199Z,0.83
2023-01-27T22:17:46.501Z,0.81
2023-01-27T22:20:15.406Z,0.74
2023-01-27T22:22:45.518Z,0.64
2023-01-27T22:25:14.394Z,0.71
2023-01-27T22:27:42.236Z,0.72
2023-01-27T22:30:12.037Z,0.64
2023-01-27T22:32:38.670Z,0.63
2023-01-27T22:35:05.970Z,0.60
2023-01-27T22:37:34.173Z,0.61
2023-01-27T22:40:00.983Z,0.65
2023-01-27T22:42:27.416Z,0.67
2023-01-27T22:44:53.854Z,0.61
2023-01-27T22:47:20.270Z,0.67
2023-01-27T22:49:46.784Z,0.60
2023-01-27T22:52:13.349Z,0.64
2023-01-27T22:54:39.826Z,0.57
2023-01-27T22:57:06.230Z,0.69
2023-01-27T22:59:32.708Z,0.58
2023-01-27T23:01:59.211Z,0.67
2023-01-27T23:04:25.712Z,0.59
2023-01-27T23:06:52.292Z,0.74
2023-01-27T23:09:18.884Z,0.79
2023-01-27T23:11:45.445Z,0.67
2023-01-27T23:14:11.934Z,0.55
2023-01-27T23:16:38.407Z,0.44
2023-01-27T23:19:05.114Z,0.50
2023-01-27T23:21:31.655Z,0.46
2023-01-27T23:23:58.484Z,0.51
2023-01-27T23:26:24.971Z,0.54
2023-01-27T23:28:51.487Z,0.42
2023-01-27T23:31:18.024Z,0.58
2023-01-27T23:33:44.640Z,0.65
2023-01-27T23:36:11.748Z,0.48
2023-01-27T23:38:38.805Z,0.49
2023-01-27T23:41:18.300Z,0.47
2023-01-27T23:43:49.987Z,0.57
2023-01-27T23:46:16.467Z,0.62
2023-01-27T23:48:42.933Z,0.76
2023-01-27T23:51:10.551Z,0.70
2023-01-27T23:53:37.052Z,0.45
2023-01-27T23:56:04.253Z,0.51
2023-01-27T23:58:30.741Z,0.55
